createdAt,value
2023-02-24T00:00:22.220Z,1006.75
2023-02-24T00:01:22.282Z,1006.72
2023-02-24T00:02:22.231Z,1006.74
2023-02-24T00:03:22.258Z,1006.75
2023-02-24T00:04:22.172Z,1006.75
2023-02-24T00:05:22.169Z,1006.75
2023-02-24T00:06:22.140Z,1006.78
2023-02-24T00:07:22.152Z,1006.72
2023-02-24T00:08:22.112Z,1006.66
2023-02-24T00:09:22.105Z,1006.68
2023-02-24T00:10:22.122Z,1006.64
2023-02-24T00:11:22.540Z,1006.61
2023-02-24T00:12:22.065Z,1006.57
2023-02-24T00:13:22.057Z,1006.60
2023-02-24T00:14:22.052Z,1006.59
2023-02-24T00:15:22.028Z,1006.60
2023-02-24T00:16:22.139Z,1006.60
2023-02-24T00:17:22.071Z,1006.57
2023-02-24T00:18:22.010Z,1006.55
2023-02-24T00:19:22.013Z,1006.50
2023-02-24T00:20:21.987Z,1006.53
2023-02-24T00:21:22.343Z,1006.55
2023-02-24T00:22:21.955Z,1006.49
2023-02-24T00:23:21.951Z,1006.48
2023-02-24T00:24:21.930Z,1006.45
2023-02-24T00:25:21.927Z,1006.43
2023-02-24T00:26:21.956Z,1006.40
2023-02-24T00:27:21.911Z,1006.39
2023-02-24T00:28:21.880Z,1006.37
2023-02-24T00:29:21.898Z,1006.37
2023-02-24T00:30:21.860Z,1006.38
2023-02-24T00:31:22.241Z,1006.33
2023-02-24T00:32:22.105Z,1006.31
2023-02-24T00:33:21.848Z,1006.28
2023-02-24T00:34:21.826Z,1006.26
2023-02-24T00:35:21.843Z,1006.20
2023-02-24T00:36:21.822Z,1006.25
2023-02-24T00:37:21.792Z,1006.18
2023-02-24T00:38:21.788Z,1006.20
2023-02-24T00:39:21.790Z,1006.13
2023-02-24T00:40:21.770Z,1006.14
2023-02-24T00:41:22.056Z,1006.14
2023-02-24T00:42:21.767Z,1006.13
2023-02-24T00:43:21.737Z,1006.08
2023-02-24T00:44:21.730Z,1006.10
2023-02-24T00:45:21.748Z,1006.05
2023-02-24T00:46:21.841Z,1006.04
2023-02-24T00:47:21.705Z,1006.01
2023-02-24T00:48:21.685Z,1006.00
2023-02-24T00:49:21.659Z,1005.99
2023-02-24T00:50:21.671Z,1006.02
2023-02-24T00:51:21.953Z,1005.99
2023-02-24T00:52:21.629Z,1005.99
2023-02-24T00:53:21.626Z,1005.99
2023-02-24T00:54:21.624Z,1005.97
2023-02-24T00:55:21.617Z,1005.98
2023-02-24T00:56:21.600Z,1006.00
2023-02-24T00:57:21.777Z,1005.92
2023-02-24T00:58:21.586Z,1005.95
2023-02-24T00:59:21.561Z,1005.95
2023-02-24T01:00:21.562Z,1005.95
2023-02-24T01:01:21.888Z,1005.97
2023-02-24T01:02:21.606Z,1005.97
2023-02-24T01:03:21.508Z,1005.95
2023-02-24T01:04:21.603Z,1005.95
2023-02-24T01:05:21.550Z,1005.97
2023-02-24T01:06:21.508Z,1005.94
2023-02-24T01:07:21.478Z,1005.99
2023-02-24T01:08:21.560Z,1005.96
2023-02-24T01:09:21.465Z,1005.98
2023-02-24T01:10:21.432Z,1005.94
2023-02-24T01:11:21.898Z,1005.90
2023-02-24T01:12:21.562Z,1005.88
2023-02-24T01:13:21.410Z,1005.87
2023-02-24T01:14:21.423Z,1005.89
2023-02-24T01:15:21.369Z,1005.82
2023-02-24T01:16:21.474Z,1005.81
2023-02-24T01:17:21.384Z,1005.80
2023-02-24T01:18:21.387Z,1005.75
2023-02-24T01:19:21.349Z,1005.78
2023-02-24T01:20:21.313Z,1005.73
2023-02-24T01:21:21.583Z,1005.69
2023-02-24T01:22:21.338Z,1005.68
2023-02-24T01:23:21.280Z,1005.70
2023-02-24T01:24:21.297Z,1005.66
2023-02-24T01:25:21.304Z,1005.63
2023-02-24T01:26:21.249Z,1005.61
2023-02-24T01:27:21.257Z,1005.60
2023-02-24T01:28:21.246Z,1005.59
2023-02-24T01:29:21.233Z,1005.57
2023-02-24T01:30:21.322Z,1005.58
2023-02-24T01:31:21.569Z,1005.59
2023-02-24T01:32:21.601Z,1005.54
2023-02-24T01:33:21.233Z,1005.58
2023-02-24T01:34:21.173Z,1005.50
2023-02-24T01:35:21.163Z,1005.49
2023-02-24T01:36:21.142Z,1005.50
2023-02-24T01:37:21.157Z,1005.44
2023-02-24T01:38:21.125Z,1005.45
2023-02-24T01:39:21.131Z,1005.44
2023-02-24T01:40:21.676Z,1005.45
2023-02-24T01:41:21.460Z,1005.42
2023-02-24T01:42:21.079Z,1005.39
2023-02-24T01:43:21.082Z,1005.38
2023-02-24T01:44:21.055Z,1005.41
2023-02-24T01:45:21.057Z,1005.40
2023-02-24T01:46:21.091Z,1005.40
2023-02-24T01:47:21.447Z,1005.37
2023-02-24T01:48:21.024Z,1005.38
2023-02-24T01:49:21.006Z,1005.32
2023-02-24T01:50:20.999Z,1005.34
2023-02-24T01:51:21.346Z,1005.33
2023-02-24T01:52:21.010Z,1005.32
2023-02-24T01:53:20.967Z,1005.33
2023-02-24T01:54:20.968Z,1005.30
2023-02-24T01:55:20.931Z,1005.31
2023-02-24T01:56:20.938Z,1005.28
2023-02-24T01:57:20.962Z,1005.25
2023-02-24T01:58:20.903Z,1005.27
2023-02-24T01:59:20.914Z,1005.28
2023-02-24T02:00:20.886Z,1005.29
2023-02-24T02:01:21.237Z,1005.28
2023-02-24T02:02:21.088Z,1005.30
2023-02-24T02:03:20.850Z,1005.31
2023-02-24T02:04:20.833Z,1005.28
2023-02-24T02:05:20.828Z,1005.29
2023-02-24T02:06:20.813Z,1005.27
2023-02-24T02:07:20.821Z,1005.28
2023-02-24T02:08:20.825Z,1005.22
2023-02-24T02:09:20.791Z,1005.26
2023-02-24T02:10:20.803Z,1005.28
2023-02-24T02:11:21.364Z,1005.24
2023-02-24T02:12:20.748Z,1005.25
2023-02-24T02:13:20.835Z,1005.24
2023-02-24T02:14:20.739Z,1005.24
2023-02-24T02:15:20.923Z,1005.21
2023-02-24T02:16:20.833Z,1005.23
2023-02-24T02:17:20.703Z,1005.20
2023-02-24T02:18:20.723Z,1005.19
2023-02-24T02:19:20.700Z,1005.17
2023-02-24T02:20:20.660Z,1005.13
2023-02-24T02:21:20.978Z,1005.21
2023-02-24T02:22:20.652Z,1005.17
2023-02-24T02:23:20.663Z,1005.13
2023-02-24T02:24:20.629Z,1005.10
2023-02-24T02:25:20.631Z,1005.10
2023-02-24T02:26:20.615Z,1005.11
2023-02-24T02:27:20.605Z,1005.09
2023-02-24T02:28:20.570Z,1005.09
2023-02-24T02:29:20.569Z,1005.09
2023-02-24T02:30:20.562Z,1005.08
2023-02-24T02:31:21.009Z,1005.11
2023-02-24T02:32:20.693Z,1005.09
2023-02-24T02:33:20.532Z,1005.09
2023-02-24T02:34:20.545Z,1005.10
2023-02-24T02:35:20.524Z,1005.13
2023-02-24T02:36:20.506Z,1005.05
2023-02-24T02:37:20.484Z,1005.02
2023-02-24T02:38:20.470Z,1005.01
2023-02-24T02:39:20.468Z,1005.02
2023-02-24T02:40:20.458Z,1005.00
2023-02-24T02:41:20.764Z,1005.00
2023-02-24T02:42:20.416Z,1005.02
2023-02-24T02:43:20.406Z,1005.02
2023-02-24T02:44:20.411Z,1004.99
2023-02-24T02:45:20.394Z,1005.05
2023-02-24T02:46:20.389Z,1005.04
2023-02-24T02:47:20.374Z,1004.98
2023-02-24T02:48:20.340Z,1004.94
2023-02-24T02:49:20.347Z,1004.94
2023-02-24T02:50:20.349Z,1004.93
2023-02-24T02:51:20.681Z,1004.87
2023-02-24T02:52:20.320Z,1004.91
2023-02-24T02:53:20.292Z,1004.88
2023-02-24T02:54:20.279Z,1004.94
2023-02-24T02:55:20.267Z,1004.90
2023-02-24T02:56:20.270Z,1005.01
2023-02-24T02:57:20.244Z,1004.97
2023-02-24T02:58:20.243Z,1004.94
2023-02-24T02:59:20.237Z,1004.94
2023-02-24T03:00:20.216Z,1004.93
2023-02-24T03:01:20.573Z,1004.96
2023-02-24T03:02:20.207Z,1004.93
2023-02-24T03:03:20.175Z,1004.95
2023-02-24T03:04:20.269Z,1004.91
2023-02-24T03:05:20.161Z,1004.90
2023-02-24T03:06:20.296Z,1004.91
2023-02-24T03:07:20.153Z,1004.79
2023-02-24T03:08:20.127Z,1004.82
2023-02-24T03:09:20.115Z,1004.78
2023-02-24T03:10:20.120Z,1004.77
2023-02-24T03:11:20.508Z,1004.78
2023-02-24T03:12:20.095Z,1004.74
2023-02-24T03:13:20.073Z,1004.67
2023-02-24T03:14:20.066Z,1004.69
2023-02-24T03:15:20.041Z,1004.65
2023-02-24T03:16:20.114Z,1004.66
2023-02-24T03:17:20.021Z,1004.61
2023-02-24T03:18:20.041Z,1004.60
2023-02-24T03:19:20.029Z,1004.60
2023-02-24T03:20:19.986Z,1004.58
2023-02-24T03:21:20.436Z,1004.59
2023-02-24T03:22:19.992Z,1004.60
2023-02-24T03:23:19.953Z,1004.56
2023-02-24T03:24:19.945Z,1004.51
2023-02-24T03:25:19.938Z,1004.47
2023-02-24T03:26:19.918Z,1004.45
2023-02-24T03:27:19.920Z,1004.46
2023-02-24T03:28:19.902Z,1004.45
2023-02-24T03:29:19.910Z,1004.47
2023-02-24T03:30:19.891Z,1004.42
2023-02-24T03:31:20.466Z,1004.44
2023-02-24T03:32:20.109Z,1004.44
2023-02-24T03:33:19.863Z,1004.43
2023-02-24T03:34:19.841Z,1004.44
2023-02-24T03:35:19.833Z,1004.47
2023-02-24T03:36:19.832Z,1004.47
2023-02-24T03:37:19.808Z,1004.51
2023-02-24T03:38:19.838Z,1004.43
2023-02-24T03:39:19.792Z,1004.49
2023-02-24T03:40:19.782Z,1004.42
2023-02-24T03:41:20.208Z,1004.46
2023-02-24T03:42:19.743Z,1004.44
2023-02-24T03:43:19.735Z,1004.44
2023-02-24T03:44:19.731Z,1004.46
2023-02-24T03:45:19.716Z,1004.42
2023-02-24T03:46:19.781Z,1004.43
2023-02-24T03:47:19.697Z,1004.41
2023-02-24T03:48:19.673Z,1004.39
2023-02-24T03:49:19.678Z,1004.36
2023-02-24T03:50:19.661Z,1004.39
2023-02-24T03:51:19.959Z,1004.38
2023-02-24T03:52:19.644Z,1004.40
2023-02-24T03:53:19.624Z,1004.35
2023-02-24T03:54:19.647Z,1004.36
2023-02-24T03:55:19.620Z,1004.34
2023-02-24T03:56:19.587Z,1004.33
2023-02-24T03:57:19.607Z,1004.35
2023-02-24T03:58:19.567Z,1004.32
2023-02-24T03:59:19.556Z,1004.33
2023-02-24T04:00:19.557Z,1004.36
2023-02-24T04:01:19.942Z,1004.36
2023-02-24T04:02:19.604Z,1004.36
2023-02-24T04:03:19.531Z,1004.34
2023-02-24T04:04:19.560Z,1004.40
2023-02-24T04:05:19.484Z,1004.38
2023-02-24T04:06:19.489Z,1004.39
2023-02-24T04:07:19.476Z,1004.41
2023-02-24T04:08:19.468Z,1004.42
2023-02-24T04:09:19.464Z,1004.45
2023-02-24T04:10:19.472Z,1004.44
2023-02-24T04:11:19.769Z,1004.46
2023-02-24T04:12:19.464Z,1004.43
2023-02-24T04:13:19.403Z,1004.47
2023-02-24T04:14:19.401Z,1004.48
2023-02-24T04:15:19.396Z,1004.46
2023-02-24T04:16:19.375Z,1004.45
2023-02-24T04:17:19.501Z,1004.51
2023-02-24T04:18:19.357Z,1004.49
2023-02-24T04:19:19.334Z,1004.44
2023-02-24T04:20:19.335Z,1004.43
2023-02-24T04:21:19.694Z,1004.44
2023-02-24T04:22:19.305Z,1004.44
2023-02-24T04:23:19.293Z,1004.42
2023-02-24T04:24:19.279Z,1004.41
2023-02-24T04:25:19.272Z,1004.36
2023-02-24T04:26:19.279Z,1004.41
2023-02-24T04:27:19.263Z,1004.41
2023-02-24T04:28:19.229Z,1004.34
2023-02-24T04:29:19.215Z,1004.35
2023-02-24T04:30:19.221Z,1004.33
2023-02-24T04:31:19.496Z,1004.35
2023-02-24T04:32:19.328Z,1004.31
2023-02-24T04:33:19.191Z,1004.33
2023-02-24T04:34:19.172Z,1004.28
2023-02-24T04:35:19.170Z,1004.28
2023-02-24T04:36:19.142Z,1004.24
2023-02-24T04:37:19.131Z,1004.22
2023-02-24T04:38:19.137Z,1004.23
2023-02-24T04:39:19.115Z,1004.22
2023-02-24T04:40:19.097Z,1004.23
2023-02-24T04:41:19.489Z,1004.25
2023-02-24T04:42:19.110Z,1004.21
2023-02-24T04:43:19.100Z,1004.20
2023-02-24T04:44:19.071Z,1004.18
2023-02-24T04:45:19.056Z,1004.15
2023-02-24T04:46:19.119Z,1004.13
2023-02-24T04:47:19.055Z,1004.13
2023-02-24T04:48:19.023Z,1004.12
2023-02-24T04:49:19.022Z,1004.06
2023-02-24T04:50:19.011Z,1004.04
2023-02-24T04:51:19.274Z,1004.04
2023-02-24T04:52:18.976Z,1004.01
2023-02-24T04:53:18.957Z,1004.05
2023-02-24T04:54:18.938Z,1004.03
2023-02-24T04:55:18.948Z,1004.00
2023-02-24T04:56:18.933Z,1003.95
2023-02-24T04:57:18.919Z,1003.94
2023-02-24T04:58:18.917Z,1003.90
2023-02-24T04:59:18.887Z,1003.94
2023-02-24T05:00:18.872Z,1003.92
2023-02-24T05:01:19.301Z,1003.93
2023-02-24T05:02:20.165Z,1003.91
2023-02-24T05:03:18.845Z,1003.94
2023-02-24T05:04:18.897Z,1003.96
2023-02-24T05:05:18.822Z,1003.98
2023-02-24T05:06:18.827Z,1003.97
2023-02-24T05:07:18.806Z,1003.93
2023-02-24T05:08:18.802Z,1003.96
2023-02-24T05:09:18.801Z,1003.88
2023-02-24T05:10:18.805Z,1003.93
2023-02-24T05:11:19.261Z,1003.93
2023-02-24T05:12:18.746Z,1003.97
2023-02-24T05:13:18.749Z,1003.96
2023-02-24T05:14:18.767Z,1003.95
2023-02-24T05:15:18.748Z,1003.93
2023-02-24T05:16:18.740Z,1003.98
2023-02-24T05:17:18.742Z,1003.92
2023-02-24T05:18:21.195Z,1003.89
2023-02-24T05:19:18.659Z,1004.01
2023-02-24T05:20:18.653Z,1003.92
2023-02-24T05:21:19.081Z,1003.92
2023-02-24T05:22:18.648Z,1003.87
2023-02-24T05:23:18.617Z,1003.92
2023-02-24T05:24:18.616Z,1003.87
2023-02-24T05:25:18.618Z,1003.81
2023-02-24T05:26:18.678Z,1003.82
2023-02-24T05:27:18.588Z,1003.76
2023-02-24T05:28:18.576Z,1003.73
2023-02-24T05:29:18.548Z,1003.81
2023-02-24T05:30:18.563Z,1003.82
2023-02-24T05:31:18.704Z,1003.83
2023-02-24T05:32:18.671Z,1003.89
2023-02-24T05:33:18.516Z,1003.87
2023-02-24T05:34:18.503Z,1003.81
2023-02-24T05:35:18.496Z,1003.76
2023-02-24T05:36:18.488Z,1003.81
2023-02-24T05:37:18.471Z,1003.84
2023-02-24T05:38:18.456Z,1003.83
2023-02-24T05:39:18.470Z,1003.83
2023-02-24T05:40:18.424Z,1003.81
2023-02-24T05:41:18.678Z,1003.79
2023-02-24T05:42:18.402Z,1003.82
2023-02-24T05:43:18.414Z,1003.85
2023-02-24T05:44:18.399Z,1003.84
2023-02-24T05:45:18.427Z,1003.80
2023-02-24T05:46:18.460Z,1003.79
2023-02-24T05:47:18.349Z,1003.73
2023-02-24T05:48:18.361Z,1003.74
2023-02-24T05:49:18.325Z,1003.74
2023-02-24T05:50:18.327Z,1003.72
2023-02-24T05:51:18.534Z,1003.75
2023-02-24T05:52:18.302Z,1003.70
2023-02-24T05:53:18.298Z,1003.66
2023-02-24T05:54:18.274Z,1003.69
2023-02-24T05:55:18.257Z,1003.72
2023-02-24T05:56:18.262Z,1003.71
2023-02-24T05:57:18.250Z,1003.75
2023-02-24T05:58:18.224Z,1003.76
2023-02-24T05:59:18.278Z,1003.76
2023-02-24T06:00:18.224Z,1003.71
2023-02-24T06:01:18.491Z,1003.67
2023-02-24T06:02:18.274Z,1003.73
2023-02-24T06:03:18.269Z,1003.71
2023-02-24T06:04:18.180Z,1003.71
2023-02-24T06:05:20.857Z,1003.70
2023-02-24T06:06:18.145Z,1003.64
2023-02-24T06:07:18.156Z,1003.68
2023-02-24T06:08:18.125Z,1003.64
2023-02-24T06:09:18.118Z,1003.62
2023-02-24T06:10:18.105Z,1003.61
2023-02-24T06:11:18.096Z,1003.57
2023-02-24T06:12:18.092Z,1003.61
2023-02-24T06:13:18.100Z,1003.62
2023-02-24T06:14:18.059Z,1003.63
2023-02-24T06:15:18.057Z,1003.67
2023-02-24T06:16:18.107Z,1003.65
2023-02-24T06:17:25.848Z,1003.69
2023-02-24T06:18:18.025Z,1003.64
2023-02-24T06:19:18.014Z,1003.67
2023-02-24T06:20:17.976Z,1003.68
2023-02-24T06:21:17.994Z,1003.69
2023-02-24T06:22:17.963Z,1003.69
2023-02-24T06:23:17.967Z,1003.70
2023-02-24T06:24:17.955Z,1003.77
2023-02-24T06:25:17.964Z,1003.70
2023-02-24T06:26:17.981Z,1003.69
2023-02-24T06:27:18.101Z,1003.69
2023-02-24T06:28:17.908Z,1003.71
2023-02-24T06:29:17.907Z,1003.71
2023-02-24T06:30:17.881Z,1003.73
2023-02-24T06:31:17.887Z,1003.69
2023-02-24T06:32:18.105Z,1003.68
2023-02-24T06:33:17.914Z,1003.63
2023-02-24T06:34:17.876Z,1003.61
2023-02-24T06:35:17.813Z,1003.58
2023-02-24T06:36:17.822Z,1003.64
2023-02-24T06:37:17.840Z,1003.64
2023-02-24T06:38:17.787Z,1003.64
2023-02-24T06:39:17.774Z,1003.58
2023-02-24T06:40:17.824Z,1003.55
2023-02-24T06:41:17.822Z,1003.56
2023-02-24T06:42:17.786Z,1003.56
2023-02-24T06:43:17.758Z,1003.52
2023-02-24T06:44:17.738Z,1003.52
2023-02-24T06:45:18.759Z,1003.50
2023-02-24T06:46:17.753Z,1003.55
2023-02-24T06:47:17.702Z,1003.55
2023-02-24T06:48:17.685Z,1003.56
2023-02-24T06:49:17.738Z,1003.57
2023-02-24T06:50:17.703Z,1003.52
2023-02-24T06:51:18.472Z,1003.54
2023-02-24T06:52:17.657Z,1003.51
2023-02-24T06:53:17.636Z,1003.50
2023-02-24T06:54:18.185Z,1003.50
2023-02-24T06:55:17.690Z,1003.52
2023-02-24T06:56:17.596Z,1003.50
2023-02-24T06:57:17.786Z,1003.44
2023-02-24T06:58:20.243Z,1003.43
2023-02-24T06:59:17.625Z,1003.41
2023-02-24T07:00:17.660Z,1003.44
2023-02-24T07:01:17.696Z,1003.38
2023-02-24T07:02:17.556Z,1003.38
2023-02-24T07:03:17.544Z,1003.44
2023-02-24T07:04:17.714Z,1003.44
2023-02-24T07:05:17.528Z,1003.42
2023-02-24T07:06:17.492Z,1003.42
2023-02-24T07:07:17.743Z,1003.44
2023-02-24T07:08:17.452Z,1003.46
2023-02-24T07:09:17.467Z,1003.41
2023-02-24T07:10:17.436Z,1003.45
2023-02-24T07:11:17.452Z,1003.40
2023-02-24T07:12:17.424Z,1003.39
2023-02-24T07:13:17.412Z,1003.39
2023-02-24T07:14:17.403Z,1003.42
2023-02-24T07:15:17.401Z,1003.36
2023-02-24T07:16:17.412Z,1003.36
2023-02-24T07:17:17.362Z,1003.34
2023-02-24T07:18:17.373Z,1003.36
2023-02-24T07:19:17.382Z,1003.39
2023-02-24T07:20:17.328Z,1003.41
2023-02-24T07:21:17.350Z,1003.42
2023-02-24T07:22:17.324Z,1003.36
2023-02-24T07:23:17.319Z,1003.36
2023-02-24T07:24:17.285Z,1003.36
2023-02-24T07:25:18.184Z,1003.28
2023-02-24T07:26:17.256Z,1003.26
2023-02-24T07:27:17.290Z,1003.31
2023-02-24T07:28:17.251Z,1003.29
2023-02-24T07:29:17.235Z,1003.33
2023-02-24T07:30:17.237Z,1003.34
2023-02-24T07:31:17.413Z,1003.32
2023-02-24T07:32:17.345Z,1003.33
2023-02-24T07:33:17.205Z,1003.31
2023-02-24T07:34:17.175Z,1003.34
2023-02-24T07:35:17.848Z,1003.35
2023-02-24T07:36:17.177Z,1003.31
2023-02-24T07:37:17.187Z,1003.30
2023-02-24T07:38:17.216Z,1003.27
2023-02-24T07:39:17.115Z,1003.27
2023-02-24T07:40:17.112Z,1003.25
2023-02-24T07:41:17.074Z,1003.22
2023-02-24T07:42:17.101Z,1003.22
2023-02-24T07:43:17.101Z,1003.23
2023-02-24T07:44:17.072Z,1003.20
2023-02-24T07:45:17.113Z,1003.23
2023-02-24T07:46:17.151Z,1003.16
2023-02-24T07:47:17.170Z,1003.20
2023-02-24T07:48:17.707Z,1003.15
2023-02-24T07:49:17.009Z,1003.17
2023-02-24T07:50:16.987Z,1003.11
2023-02-24T07:51:16.983Z,1003.08
2023-02-24T07:52:16.969Z,1003.05
2023-02-24T07:53:16.988Z,1003.06
2023-02-24T07:54:17.217Z,1003.11
2023-02-24T07:55:16.981Z,1003.03
2023-02-24T07:56:16.997Z,1003.00
2023-02-24T07:57:16.958Z,1003.00
2023-02-24T07:58:16.933Z,1003.03
2023-02-24T07:59:16.895Z,1003.05
2023-02-24T08:00:16.938Z,1002.99
2023-02-24T08:01:16.906Z,1002.99
2023-02-24T08:02:17.282Z,1002.94
2023-02-24T08:03:17.212Z,1002.98
2023-02-24T08:04:16.888Z,1002.94
2023-02-24T08:05:16.916Z,1002.92
2023-02-24T08:06:16.815Z,1002.89
2023-02-24T08:07:17.039Z,1002.89
2023-02-24T08:08:17.219Z,1002.90
2023-02-24T08:09:16.875Z,1002.94
2023-02-24T08:10:16.807Z,1002.90
2023-02-24T08:11:16.817Z,1002.90
2023-02-24T08:12:16.763Z,1002.91
2023-02-24T08:13:16.964Z,1002.92
2023-02-24T08:14:16.775Z,1002.90
2023-02-24T08:15:16.711Z,1002.89
2023-02-24T08:16:16.888Z,1002.87
2023-02-24T08:17:16.702Z,1002.83
2023-02-24T08:18:16.696Z,1002.85
2023-02-24T08:19:16.901Z,1002.80
2023-02-24T08:20:16.668Z,1002.78
2023-02-24T08:21:16.802Z,1002.77
2023-02-24T08:22:16.660Z,1002.77
2023-02-24T08:23:16.728Z,1002.76
2023-02-24T08:24:16.693Z,1002.71
2023-02-24T08:25:17.255Z,1002.69
2023-02-24T08:26:16.655Z,1002.68
2023-02-24T08:27:16.602Z,1002.65
2023-02-24T08:28:16.574Z,1002.68
2023-02-24T08:29:16.556Z,1002.68
2023-02-24T08:30:16.599Z,1002.69
2023-02-24T08:31:16.678Z,1002.65
2023-02-24T08:32:18.972Z,1002.60
2023-02-24T08:33:16.574Z,1002.57
2023-02-24T08:34:16.557Z,1002.55
2023-02-24T08:35:16.729Z,1002.54
2023-02-24T08:36:16.545Z,1002.53
2023-02-24T08:37:16.468Z,1002.49
2023-02-24T08:38:16.451Z,1002.47
2023-02-24T08:39:16.458Z,1002.46
2023-02-24T08:40:16.459Z,1002.43
2023-02-24T08:41:16.486Z,1002.42
2023-02-24T08:42:16.410Z,1002.37
2023-02-24T08:43:16.496Z,1002.39
2023-02-24T08:44:16.495Z,1002.33
2023-02-24T08:45:16.446Z,1002.32
2023-02-24T08:46:16.446Z,1002.33
2023-02-24T08:47:16.360Z,1002.33
2023-02-24T08:48:16.466Z,1002.33
2023-02-24T08:49:16.387Z,1002.29
2023-02-24T08:50:16.765Z,1002.29
2023-02-24T08:51:16.424Z,1002.30
2023-02-24T08:52:16.317Z,1002.23
2023-02-24T08:53:16.314Z,1002.23
2023-02-24T08:54:16.276Z,1002.24
2023-02-24T08:55:16.294Z,1002.23
2023-02-24T08:56:16.266Z,1002.24
2023-02-24T08:57:16.725Z,1002.23
2023-02-24T08:58:16.253Z,1002.20
2023-02-24T08:59:16.230Z,1002.17
2023-02-24T09:00:16.211Z,1002.16
2023-02-24T09:01:16.299Z,1002.15
2023-02-24T09:02:16.249Z,1002.13
2023-02-24T09:03:16.316Z,1002.10
2023-02-24T09:04:16.256Z,1002.10
2023-02-24T09:05:16.204Z,1002.15
2023-02-24T09:06:16.168Z,1002.14
2023-02-24T09:07:16.248Z,1002.12
2023-02-24T09:08:16.199Z,1002.14
2023-02-24T09:09:16.217Z,1002.11
2023-02-24T09:10:16.117Z,1002.11
2023-02-24T09:11:16.793Z,1002.01
2023-02-24T09:12:16.116Z,1002.05
2023-02-24T09:13:16.104Z,1001.98
2023-02-24T09:14:26.185Z,1001.97
2023-02-24T09:15:17.113Z,1001.99
2023-02-24T09:16:16.122Z,1001.96
2023-02-24T09:17:16.037Z,1001.95
2023-02-24T09:18:16.073Z,1001.94
2023-02-24T09:19:16.021Z,1001.93
2023-02-24T09:20:16.015Z,1001.98
2023-02-24T09:21:16.126Z,1001.94
2023-02-24T09:22:21.390Z,1001.94
2023-02-24T09:23:16.976Z,1001.94
2023-02-24T09:24:16.933Z,1001.92
2023-02-24T09:25:16.281Z,1001.95
2023-02-24T09:26:15.916Z,1001.90
2023-02-24T09:27:15.935Z,1001.92
2023-02-24T09:28:15.967Z,1001.94
2023-02-24T09:29:15.937Z,1001.89
2023-02-24T09:30:15.877Z,1001.86
2023-02-24T09:31:16.081Z,1001.83
2023-02-24T09:32:16.055Z,1001.84
2023-02-24T09:33:15.889Z,1001.80
2023-02-24T09:34:15.835Z,1001.81
2023-02-24T09:35:15.826Z,1001.84
2023-02-24T09:36:15.839Z,1001.83
2023-02-24T09:37:15.836Z,1001.84
2023-02-24T09:38:15.826Z,1001.83
2023-02-24T09:39:15.828Z,1001.81
2023-02-24T09:40:15.820Z,1001.83
2023-02-24T09:41:18.863Z,1001.79
2023-02-24T09:42:15.893Z,1001.78
2023-02-24T09:43:15.748Z,1001.74
2023-02-24T09:44:15.789Z,1001.75
2023-02-24T09:45:15.767Z,1001.73
2023-02-24T09:46:15.895Z,1001.73
2023-02-24T09:47:15.697Z,1001.71
2023-02-24T09:48:16.879Z,1001.62
2023-02-24T09:49:15.676Z,1001.57
2023-02-24T09:50:17.110Z,1001.55
2023-02-24T09:51:15.660Z,1001.62
2023-02-24T09:52:15.673Z,1001.62
2023-02-24T09:53:15.654Z,1001.61
2023-02-24T09:54:15.620Z,1001.58
2023-02-24T09:55:15.646Z,1001.65
2023-02-24T09:56:15.627Z,1001.62
2023-02-24T09:57:15.647Z,1001.60
2023-02-24T09:58:15.556Z,1001.55
2023-02-24T09:59:15.596Z,1001.55
2023-02-24T10:00:15.732Z,1001.54
2023-02-24T10:01:15.607Z,1001.47
2023-02-24T10:02:15.623Z,1001.47
2023-02-24T10:03:15.536Z,1001.43
2023-02-24T10:04:21.103Z,1001.48
2023-02-24T10:05:16.522Z,1001.55
2023-02-24T10:06:15.491Z,1001.56
2023-02-24T10:07:15.503Z,1001.54
2023-02-24T10:08:15.468Z,1001.53
2023-02-24T10:09:15.469Z,1001.57
2023-02-24T10:10:15.451Z,1001.53
2023-02-24T10:11:15.737Z,1001.53
2023-02-24T10:12:15.424Z,1001.53
2023-02-24T10:13:15.394Z,1001.50
2023-02-24T10:14:15.425Z,1001.51
2023-02-24T10:15:15.386Z,1001.52
2023-02-24T10:16:15.496Z,1001.49
2023-02-24T10:17:15.435Z,1001.43
2023-02-24T10:18:15.417Z,1001.39
2023-02-24T10:19:15.574Z,1001.50
2023-02-24T10:20:15.372Z,1001.34
2023-02-24T10:21:15.377Z,1001.34
2023-02-24T10:22:15.348Z,1001.41
2023-02-24T10:23:15.339Z,1001.29
2023-02-24T10:24:15.308Z,1001.32
2023-02-24T10:25:21.118Z,1001.30
2023-02-24T10:26:16.414Z,1001.27
2023-02-24T10:27:17.871Z,1001.21
2023-02-24T10:28:15.253Z,1001.25
2023-02-24T10:29:16.865Z,1001.27
2023-02-24T10:30:15.226Z,1001.18
2023-02-24T10:31:15.334Z,1001.14
2023-02-24T10:32:15.556Z,1001.19
2023-02-24T10:33:15.258Z,1001.10
2023-02-24T10:34:15.188Z,1001.16
2023-02-24T10:35:15.203Z,1001.12
2023-02-24T10:36:15.146Z,1001.07
2023-02-24T10:37:27.641Z,1001.06
2023-02-24T10:38:16.230Z,1001.05
2023-02-24T10:39:15.138Z,1000.96
2023-02-24T10:40:15.132Z,1001.09
2023-02-24T10:41:15.137Z,1001.11
2023-02-24T10:42:15.198Z,1001.01
2023-02-24T10:43:15.119Z,1000.93
2023-02-24T10:44:15.083Z,1000.99
2023-02-24T10:45:18.869Z,1000.98
2023-02-24T10:46:15.171Z,1000.94
2023-02-24T10:47:15.129Z,1000.93
2023-02-24T10:48:15.617Z,1000.93
2023-02-24T10:49:15.034Z,1000.89
2023-02-24T10:50:15.046Z,1000.91
2023-02-24T10:51:15.004Z,1000.92
2023-02-24T10:52:15.019Z,1000.88
2023-02-24T10:53:14.955Z,1000.79
2023-02-24T10:54:14.972Z,1000.80
2023-02-24T10:55:14.965Z,1001.00
2023-02-24T10:56:15.096Z,1000.86
2023-02-24T10:57:14.957Z,1000.84
2023-02-24T10:58:14.905Z,1000.87
2023-02-24T10:59:14.944Z,1000.81
2023-02-24T11:00:14.885Z,1000.84
2023-02-24T11:01:15.005Z,1000.82
2023-02-24T11:02:14.875Z,1000.95
2023-02-24T11:03:22.103Z,1000.80
2023-02-24T11:04:15.848Z,1000.80
2023-02-24T11:05:14.925Z,1000.77
2023-02-24T11:06:14.838Z,1000.74
2023-02-24T11:07:14.814Z,1000.78
2023-02-24T11:08:14.804Z,1000.74
2023-02-24T11:09:14.779Z,1000.72
2023-02-24T11:10:14.778Z,1000.73
2023-02-24T11:11:14.780Z,1000.77
2023-02-24T11:12:14.768Z,1000.67
2023-02-24T11:13:14.785Z,1000.90
2023-02-24T11:14:14.781Z,1000.70
2023-02-24T11:15:14.756Z,1000.70
2023-02-24T11:16:14.874Z,1000.56
2023-02-24T11:17:14.722Z,1000.56
2023-02-24T11:18:14.697Z,1000.57
2023-02-24T11:19:14.697Z,1000.65
2023-02-24T11:20:14.693Z,1000.55
2023-02-24T11:21:14.668Z,1000.45
2023-02-24T11:22:14.674Z,1000.48
2023-02-24T11:23:14.642Z,1000.46
2023-02-24T11:24:14.622Z,1000.42
2023-02-24T11:25:14.619Z,1000.48
2023-02-24T11:26:14.641Z,1000.43
2023-02-24T11:27:14.632Z,1000.36
2023-02-24T11:28:14.602Z,1000.36
2023-02-24T11:29:14.591Z,1000.30
2023-02-24T11:30:14.701Z,1000.43
2023-02-24T11:31:14.845Z,1000.42
2023-02-24T11:32:15.646Z,1000.25
2023-02-24T11:33:14.563Z,1000.33
2023-02-24T11:34:14.568Z,1000.25
2023-02-24T11:35:14.531Z,1000.18
2023-02-24T11:36:14.494Z,1000.19
2023-02-24T11:37:14.578Z,1000.28
2023-02-24T11:38:14.454Z,1000.22
2023-02-24T11:39:20.452Z,1000.25
2023-02-24T11:40:15.519Z,1000.16
2023-02-24T11:41:14.451Z,1000.15
2023-02-24T11:42:14.852Z,1000.22
2023-02-24T11:43:15.206Z,1000.19
2023-02-24T11:44:15.351Z,1000.24
2023-02-24T11:45:14.405Z,1000.21
2023-02-24T11:46:14.546Z,1000.15
2023-02-24T11:47:14.429Z,1000.10
2023-02-24T11:48:14.363Z,1000.07
2023-02-24T11:49:14.352Z,1000.02
2023-02-24T11:50:14.412Z,1000.02
2023-02-24T11:51:14.332Z,999.99
2023-02-24T11:52:14.442Z,999.97
2023-02-24T11:53:14.370Z,999.95
2023-02-24T11:54:14.303Z,999.93
2023-02-24T11:55:14.266Z,999.95
2023-02-24T11:56:14.307Z,999.84
2023-02-24T11:57:14.303Z,999.85
2023-02-24T11:58:14.261Z,999.97
2023-02-24T11:59:14.247Z,999.82
2023-02-24T12:00:14.242Z,999.89
2023-02-24T12:01:14.200Z,999.79
2023-02-24T12:02:14.230Z,999.78
2023-02-24T12:03:14.353Z,999.75
2023-02-24T12:04:14.208Z,999.75
2023-02-24T12:05:14.269Z,999.71
2023-02-24T12:06:14.767Z,999.79